• Join FlightAware (Why Join?)
  • Login
  • US Flag 
07:37AM EST


 

Airport Tracker/Info


-or-


 

Live Flight TrackerFlight Track Log ✈ AWE710 ✈ 16-Apr-2013 ✈ KDFW - KPHL

Flight Track Log - Related Links

Times and Time Zones

All times are in EDT time to prevent confusion due to time zone crossing. See the AWE710 flight status page for this flight to view local times or setup timezone preferences in your user account.

Time Position Orientation Groundspeed Altitude Reporting Facility
EDT Latitude Longitude Course Direction KTS MPH feet Rate Location/Type
01:48PM 32.8667 -97.0333 90° East 164 189 2,700  Level Dallas / Fort Worth TRACON
01:49PM 32.8167 -97.0167 164° South 201 231 4,800 2,280 Climbing Dallas / Fort Worth TRACON
01:50PM 32.7892 -96.7565 66° East  Level FlightAware Approximate
01:50PM 32.7667 -96.9500 132° Southeast 274 315 7,100  Level Dallas / Fort Worth TRACON
01:51PM 32.8329 -96.6387 67° East  Level FlightAware Approximate
01:52PM 32.8759 -96.5204 67° East  Level FlightAware Approximate
01:52PM 32.8339 -96.7583 67° East 300 345 11,300  Level Fort Worth Center
01:53PM 32.9260 -96.4062 62° Northeast  Level FlightAware Approximate
01:53PM 32.8728 -96.6342 70° East 342 394 14,000  Level Fort Worth Center
01:54PM 32.9667 -96.2895 90° East  Level FlightAware Approximate
01:54PM 32.9075 -96.5250 69° East 377 434 16,200  Level Fort Worth Center
01:55PM 32.9525 -96.3861 69° East 397 457 18,700 2,340 Climbing Fort Worth Center
01:56PM 32.9806 -96.2644 75° East 410 472 20,900 2,100 Climbing Fort Worth Center
01:57PM 33.0019 -96.1081 81° East 425 489 23,000 2,100 Climbing Fort Worth Center
01:58PM 33.0214 -95.9617 81° East 444 511 25,100 1,860 Climbing Fort Worth Center
01:59PM 33.0422 -95.8050 81° East 459 528 26,800 1,680 Climbing Fort Worth Center
02:00PM 33.0633 -95.6511 81° East 472 543 28,500 1,560 Climbing Fort Worth Center
02:01PM 33.0964 -95.4967 76° East 472 543 30,000 1,260 Climbing Fort Worth Center
02:02PM 33.1419 -95.3394 71° East 485 558 31,100 1,320 Climbing Fort Worth Center
02:03PM 33.1833 -95.1994 71° East 490 564 32,700 1,260 Climbing Fort Worth Center
02:04PM 33.2328 -95.0442 69° East 495 570 33,700 1,140 Climbing Fort Worth Center
02:05PM 33.2756 -94.8864 72° East 495 570 35,000 1,200 Climbing Fort Worth Center
02:06PM 33.3308 -94.7258 68° East 503 579 36,100 960 Climbing Fort Worth Center
02:07PM 33.3753 -94.5653 72° East 510 587 37,000 840 Climbing Fort Worth Center
02:08PM 33.4172 -94.3997 73° East 510 587 37,800 900 Climbing Fort Worth Center
02:09PM 33.4656 -94.2411 70° East 510 587 38,900 600 Climbing Fort Worth Center
02:10PM 33.5136 -94.0825 70° East 510 587 39,000  Climbing Fort Worth Center
02:11PM 33.5717 -93.9183 67° East 510 587 39,000  Level Fort Worth Center
02:13PM 33.6881 -93.6125 65° Northeast 538 619 39,000  Level Memphis Center
02:14PM 33.7503 -93.4550 65° Northeast 531 611 39,000  Level Memphis Center
02:15PM 33.8106 -93.2997 65° Northeast 520 598 39,000  Level Memphis Center
02:16PM 33.8706 -93.1392 66° East 514 592 39,000  Level Memphis Center
02:17PM 33.9300 -92.9908 64° Northeast 514 592 39,000  Level Memphis Center
02:18PM 33.9878 -92.8272 67° East 514 592 39,000  Level Memphis Center
02:19PM 34.0469 -92.6711 65° Northeast 509 586 39,000  Level Memphis Center
02:20PM 34.1083 -92.5147 65° Northeast 509 586 39,000  Level Memphis Center
02:21PM 34.1672 -92.3553 66° East 509 586 39,000  Level Memphis Center
02:22PM 34.2239 -92.2011 66° East 509 586 39,000  Level Memphis Center
02:23PM 34.2844 -92.0389 66° East 514 592 39,000  Level Memphis Center
02:24PM 34.3408 -91.8867 66° East 509 586 39,000  Level Memphis Center
02:25PM 34.3992 -91.7214 67° East 514 592 39,000  Level Memphis Center
02:26PM 34.4506 -91.5889 65° Northeast 503 579 39,000  Level Memphis Center
02:27PM 34.5061 -91.4258 67° East 503 579 39,000  Level Memphis Center
02:28PM 34.5681 -91.2550 66° East 503 579 39,000  Level Memphis Center
02:29PM 34.6256 -91.0967 66° East 503 579 39,000  Level Memphis Center
02:30PM 34.6847 -90.9356 66° East 508 585 39,000  Level Memphis Center
02:31PM 34.7397 -90.7767 67° East 508 585 39,000  Level Memphis Center
02:32PM 34.7942 -90.6150 68° East 514 592 39,000  Level Memphis Center
02:33PM 34.8531 -90.4558 66° East 509 586 39,000  Level Memphis Center
02:34PM 34.9114 -90.2964 66° East 509 586 39,000  Level Memphis Center
02:35PM 34.9675 -90.1367 67° East 514 592 39,000  Level Memphis Center
02:36PM 35.0194 -89.9919 66° East 514 592 39,000  Level Memphis Center
02:37PM 35.0792 -89.8292 66° East 520 598 39,000  Level Memphis Center
02:38PM 35.1328 -89.6664 68° East 520 598 39,000  Level Memphis Center
02:39PM 35.1942 -89.4906 67° East 515 593 39,000  Level Memphis Center
02:40PM 35.2472 -89.3325 68° East 510 587 39,000  Level Memphis Center
02:41PM 35.3042 -89.1739 66° East 505 581 39,000  Level Memphis Center
02:42PM 35.3567 -89.0178 68° East 500 575 39,000  Level Memphis Center
02:43PM 35.4133 -88.8592 66° East 500 575 39,000  Level Memphis Center
02:44PM 35.4636 -88.7028 68° East 500 575 39,000  Level Memphis Center
02:45PM 35.5217 -88.5408 66° East 505 581 39,000  Level Memphis Center
02:46PM 35.5778 -88.3789 67° East 505 581 39,000  Level Memphis Center
02:47PM 35.6333 -88.2164 67° East 505 581 39,000  Level Memphis Center
02:48PM 35.6869 -88.0617 67° East 487 560 39,000  Level Memphis Center
02:49PM 35.7342 -87.9147 68° East 496 571 39,000  Level Memphis Center
02:50PM 35.7850 -87.7544 69° East 503 579 39,000  Level Memphis Center
02:51PM 35.8419 -87.5914 67° East 503 579 39,000  Level Memphis Center
02:52PM 35.8947 -87.4308 68° East 503 579 39,000  Level Memphis Center
02:53PM 35.9469 -87.2700 68° East 503 579 39,000  Level Memphis Center
02:54PM 35.9972 -87.1114 69° East 493 567 39,000  Level Memphis Center
02:55PM 36.0492 -86.9478 69° East 498 573 39,000  Level Memphis Center
02:56PM 36.1008 -86.7836 69° East 498 573 39,000  Level Memphis Center
02:57PM 36.1544 -86.6194 68° East 503 579 39,000  Level Memphis Center
02:58PM 36.2078 -86.4600 67° East 503 579 39,000  Level Memphis Center
02:59PM 36.2589 -86.2981 69° East 503 579 39,000  Level Memphis Center
03:00PM 36.3119 -86.1383 68° East 503 579 39,000  Level Memphis Center
03:02PM 36.4083 -85.8397 68° East 504 580 39,000  Level Indianapolis Center
03:03PM 36.4547 -85.6928 69° East 507 583 39,000  Level Indianapolis Center
03:04PM 36.5164 -85.4981 68° East 504 580 39,000  Level Indianapolis Center
03:05PM 36.5667 -85.3356 69° East 501 577 39,000  Level Indianapolis Center
03:06PM 36.6167 -85.1725 69° East 503 579 39,000  Level Indianapolis Center
03:07PM 36.6669 -85.0094 69° East 501 577 39,000  Level Indianapolis Center
03:08PM 36.7178 -84.8456 69° East 504 580 39,000  Level Indianapolis Center
03:09PM 36.7672 -84.6825 69° East 501 577 39,000  Level Indianapolis Center
03:10PM 36.8158 -84.5175 70° East 505 581 39,000  Level Indianapolis Center
03:11PM 36.8736 -84.3292 69° East 506 582 39,000  Level Indianapolis Center
03:12PM 36.9231 -84.1650 69° East 508 585 39,000  Level Indianapolis Center
03:13PM 36.9708 -84.0003 70° East 505 581 39,000  Level Indianapolis Center
03:14PM 37.0197 -83.8383 69° East 497 572 39,000  Level Indianapolis Center
03:15PM 37.0694 -83.6719 69° East 502 578 39,000  Level Indianapolis Center
03:16PM 37.1169 -83.5069 70° East 501 577 39,000  Level Indianapolis Center
03:17PM 37.1656 -83.3414 70° East 503 579 39,000  Level Indianapolis Center
03:18PM 37.2222 -83.1472 70° East 503 579 39,000  Level Indianapolis Center
03:20PM 37.2692 -82.9817 70° East 499 574 39,000  Level Indianapolis Center
03:21PM 37.3169 -82.8150 70° East 501 577 39,000  Level Indianapolis Center
03:22PM 37.3631 -82.6514 70° East 496 571 39,000 -60 Level Indianapolis Center
03:23PM 37.4086 -82.4883 71° East 493 567 38,900 -540 Descending Indianapolis Center
03:24PM 37.4542 -82.3228 71° East 498 573 37,900 -900 Descending Indianapolis Center
03:25PM 37.5011 -82.1575 70° East 499 574 37,100 -480 Descending Indianapolis Center
03:26PM 37.5467 -81.9922 71° East 498 573 37,000 -60 Descending Indianapolis Center
03:27PM 37.5989 -81.8014 71° East 494 568 37,000  Level Indianapolis Center
03:28PM 37.6431 -81.6369 71° East 494 568 37,000  Level Indianapolis Center
03:29PM 37.6825 -81.4925 71° East 494 568 37,000  Level Indianapolis Center
03:30PM 37.7336 -81.3000 71° East 496 571 37,000 -240 Level Indianapolis Center
03:30PM 37.7483 -81.2389 73° East 486 559 36,700 -720 Descending Washington Center
03:31PM 37.7831 -81.0731 75° East 491 565 36,000 -360 Descending Washington Center
03:32PM 37.7950 -80.9006 85° East 485 558 36,000  Level Washington Center
03:33PM 37.8072 -80.7147 85° East 485 558 36,000  Level Washington Center
03:34PM 37.8186 -80.5419 85° East 485 558 36,000  Level Washington Center
03:35PM 37.8297 -80.3719 85° East 485 558 36,000 -60 Level Washington Center
03:36PM 37.8408 -80.1964 85° East 485 558 35,900 -600 Descending Washington Center
03:37PM 37.8508 -80.0444 85° East 485 558 34,900 -960 Descending Washington Center
03:38PM 37.8611 -79.8739 86° East 485 558 34,000 -960 Descending Washington Center
03:39PM 37.8714 -79.7008 86° East 485 558 33,000 -540 Descending Washington Center
03:40PM 37.8833 -79.5306 85° East 478 550 33,000  Level Washington Center
03:41PM 37.8911 -79.3572 87° East 484 557 33,000  Level Washington Center
03:42PM 37.9006 -79.1839 86° East 484 557 33,000  Level Washington Center
03:43PM 37.9164 -78.9978 84° East 489 563 33,000  Level Washington Center
03:44PM 37.9378 -78.8303 81° East 489 563 33,000  Level Washington Center
03:45PM 37.9589 -78.6575 81° East 489 563 33,000  Level Washington Center
03:46PM 37.9778 -78.4869 82° East 489 563 33,000  Level Washington Center
03:47PM 37.9981 -78.3322 81° East 484 557 33,000 -540 Level Washington Center
03:48PM 38.0292 -78.1514 78° East 484 557 32,000 -960 Descending Washington Center
03:49PM 38.0908 -77.9981 63° Northeast 484 557 31,100 -1,020 Descending Washington Center
03:50PM 38.1625 -77.8522 58° Northeast 479 551 30,000 -1,020 Descending Washington Center
03:51PM 38.2339 -77.7117 57° Northeast 479 551 29,100 -540 Descending Washington Center
03:52PM 38.3072 -77.5656 57° Northeast 480 552 29,000 -60 Descending Washington Center
03:53PM 38.3697 -77.4350 59° Northeast 480 552 29,000  Level Washington Center
03:54PM 38.4406 -77.2908 58° Northeast 480 552 29,000 -900 Level Washington Center
03:55PM 38.5114 -77.1439 58° Northeast 480 552 27,300 -1,740 Descending Washington Center
03:56PM 38.5819 -76.9992 58° Northeast 485 558 25,600 -1,740 Descending Washington Center
03:57PM 38.6503 -76.8569 58° Northeast 485 558 23,900 -1,740 Descending Washington Center
03:58PM 38.7142 -76.7169 60° Northeast 471 542 22,200 -1,620 Descending Washington Center
03:59PM 38.7447 -76.5606 76° East 451 519 20,700 -1,260 Descending Washington Center
04:00PM 38.7750 -76.4092 76° East 439 505 19,700 -1,500 Descending Washington Center
04:01PM 38.8031 -76.2603 76° East 434 499 17,800 -1,800 Descending Washington Center
04:02PM 38.8372 -76.1139 73° East 428 493 16,100 -1,440 Descending Washington Center
04:03PM 38.8669 -75.9756 75° East 415 478 15,000 -780 Descending Washington Center
04:04PM 38.9006 -75.8397 72° East 402 463 14,600 -960 Descending Washington Center
04:05PM 38.9842 -75.7544 38° Northeast 378 435 13,100 -1,500 Descending Washington Center
04:07PM 39.1314 -75.6711 24° Northeast 361 415 10,800 -1,560 Descending FAA TRACON SMA TRACON (SMA)
04:07PM 39.1681 -75.6667 North 361 415 10,200 -1,200 Descending FAA TRACON SMA TRACON (SMA)
04:07PM 39.2003 -75.6628 North 359 413 10,000 -300 Descending FAA TRACON SMA TRACON (SMA)
04:08PM 39.2289 -75.6603 North 331 381 10,000  Level FAA TRACON SMA TRACON (SMA)
04:08PM 39.2614 -75.6561 North 306 352 10,000  Level FAA TRACON SMA TRACON (SMA)
04:08PM 39.2864 -75.6497 11° North 297 342 10,000  Level FAA TRACON SMA TRACON (SMA)
04:09PM 39.3086 -75.6325 31° Northeast 300 345 10,000 -900 Level FAA TRACON SMA TRACON (SMA)
04:09PM 39.3353 -75.6086 35° Northeast 291 335 9,400 -1,740 Descending FAA TRACON SMA TRACON (SMA)
04:09PM 39.3575 -75.5906 32° Northeast 303 349 8,900 -1,500 Descending FAA TRACON SMA TRACON (SMA)
04:10PM 39.3786 -75.5717 35° Northeast 301 346 8,400 -1,620 Descending FAA TRACON SMA TRACON (SMA)
04:10PM 39.3958 -75.5369 57° Northeast 302 348 7,800 -1,500 Descending FAA TRACON SMA TRACON (SMA)
04:10PM 39.4053 -75.5058 69° East 299 344 7,400 -1,080 Descending FAA TRACON SMA TRACON (SMA)
04:11PM 39.4139 -75.4758 70° East 296 341 7,100 -600 Descending FAA TRACON SMA TRACON (SMA)
04:11PM 39.4256 -75.4381 68° East 294 338 7,000 -180 Descending FAA TRACON SMA TRACON (SMA)
04:11PM 39.4353 -75.4072 68° East 296 341 7,000  Level FAA TRACON SMA TRACON (SMA)
04:12PM 39.4444 -75.3767 69° East 297 342 7,000 120 Level FAA TRACON SMA TRACON (SMA)
04:12PM 39.4556 -75.3389 69° East 295 339 7,100  Climbing FAA TRACON SMA TRACON (SMA)
04:12PM 39.4658 -75.3092 66° East 295 339 7,000  Descending FAA TRACON SMA TRACON (SMA)
04:13PM 39.4842 -75.2872 43° Northeast 284 327 7,100 -180 Climbing FAA TRACON SMA TRACON (SMA)
04:13PM 39.5058 -75.2586 46° Northeast 289 333 6,900 -1,080 Descending FAA TRACON SMA TRACON (SMA)
04:13PM 39.5228 -75.2378 43° Northeast 281 323 6,400 -1,200 Descending FAA TRACON SMA TRACON (SMA)
04:14PM 39.5411 -75.2161 42° Northeast 285 328 6,100 -600 Descending FAA TRACON SMA TRACON (SMA)
04:14PM 39.5650 -75.1883 42° Northeast 295 339 6,000 -180 Descending FAA TRACON SMA TRACON (SMA)
04:14PM 39.5822 -75.1650 46° Northeast 300 345 6,000 120 Level FAA TRACON SMA TRACON (SMA)
04:15PM 39.6017 -75.1414 43° Northeast 299 344 6,100  Climbing FAA TRACON SMA TRACON (SMA)
04:15PM 39.6244 -75.1131 44° Northeast 297 342 6,000 -180 Descending FAA TRACON SMA TRACON (SMA)
04:15PM 39.6428 -75.0906 43° Northeast 295 339 6,000  Level FAA TRACON SMA TRACON (SMA)
04:16PM 39.6617 -75.0753 32° Northeast 277 319 6,000 120 Level FAA TRACON SMA TRACON (SMA)
04:16PM 39.6867 -75.0742 North 223 257 6,100 120 Climbing FAA TRACON SMA TRACON (SMA)
04:16PM 39.7050 -75.0761 355° North 214 246 6,100 -180 Level FAA TRACON SMA TRACON (SMA)
04:17PM 39.7278 -75.0781 356° North 214 246 6,000 -180 Descending FAA TRACON SMA TRACON (SMA)
04:17PM 39.7464 -75.0803 355° North 216 249 6,000  Level FAA TRACON SMA TRACON (SMA)
04:17PM 39.7650 -75.0825 355° North 216 249 6,000  Level FAA TRACON SMA TRACON (SMA)
04:18PM 39.7833 -75.0844 355° North 217 250 6,000  Level FAA TRACON SMA TRACON (SMA)
04:18PM 39.8044 -75.0711 26° Northeast 233 268 6,000 120 Level FAA TRACON SMA TRACON (SMA)
04:18PM 39.8117 -75.0469 69° East 232 267 6,100  Climbing FAA TRACON SMA TRACON (SMA)
04:19PM 39.8178 -75.0147 76° East 236 272 6,000 -180 Descending FAA TRACON SMA TRACON (SMA)
04:19PM 39.8225 -74.9897 76° East 237 273 6,000  Level FAA TRACON SMA TRACON (SMA)
04:19PM 39.8281 -74.9647 74° East 230 265 6,000  Level FAA TRACON SMA TRACON (SMA)
04:20PM 39.8342 -74.9333 76° East 231 266 6,000 -300 Level FAA TRACON SMA TRACON (SMA)
04:20PM 39.8411 -74.9108 68° East 231 266 5,800 -900 Descending FAA TRACON SMA TRACON (SMA)
04:20PM 39.8572 -74.8978 32° Northeast 214 246 5,400 -1,380 Descending FAA TRACON SMA TRACON (SMA)
04:21PM 39.8778 -74.8992 357° North 210 242 4,900 -1,200 Descending FAA TRACON SMA TRACON (SMA)
04:21PM 39.8939 -74.9081 337° Northwest 194 223 4,600 -1,200 Descending FAA TRACON SMA TRACON (SMA)
04:21PM 39.9086 -74.9181 332° Northwest 197 227 4,100 -900 Descending FAA TRACON SMA TRACON (SMA)
04:22PM 39.9267 -74.9322 329° Northwest 195 224 4,000  Descending FAA TRACON SMA TRACON (SMA)
04:22PM 39.9281 -74.9519 275° West 179 206 4,100  Climbing FAA TRACON SMA TRACON (SMA)
04:22PM 39.9250 -74.9697 257° West 171 197 4,000 -780 Descending FAA TRACON SMA TRACON (SMA)
04:23PM 39.9211 -74.9931 258° West 169 194 3,600 -1,080 Descending FAA TRACON SMA TRACON (SMA)
04:23PM 39.9169 -75.0103 252° West 163 188 3,300 -780 Descending FAA TRACON SMA TRACON (SMA)
04:23PM 39.9147 -75.0275 260° West 165 190 3,100 -780 Descending FAA TRACON SMA TRACON (SMA)
04:24PM 39.9108 -75.0478 256° West 165 190 2,800 -900 Descending FAA TRACON SMA TRACON (SMA)
04:24PM 39.9061 -75.0675 253° West 165 190 2,500 -900 Descending FAA TRACON SMA TRACON (SMA)
04:24PM 39.9031 -75.0850 257° West 166 191 2,200 -900 Descending FAA TRACON SMA TRACON (SMA)
04:25PM 39.8992 -75.1044 255° West 162 186 1,900 -780 Descending FAA TRACON SMA TRACON (SMA)
04:25PM 39.8961 -75.1206 256° West 132 152 1,700 -600 Descending FAA TRACON SMA TRACON (SMA)
04:25PM 39.8936 -75.1333 256° West 126 145 1,500 -600 Descending FAA TRACON SMA TRACON (SMA)
04:26PM 39.8900 -75.1483 253° West 116 133 1,300 -600 Descending FAA TRACON SMA TRACON (SMA)
04:26PM 39.8878 -75.1611 257° West 115 132 1,100 -600 Descending FAA TRACON SMA TRACON (SMA)
04:26PM 39.8853 -75.1736 255° West 115 132 900 -780 Descending FAA TRACON SMA TRACON (SMA)
04:27PM 39.8819 -75.1892 254° West 116 133 600 -600 Descending FAA TRACON SMA TRACON (SMA)
04:27PM 39.8794 -75.2017 255° West 116 133 500 -600 Descending FAA TRACON SMA TRACON (SMA)
04:27PM 39.8769 -75.2147 256° West 118 136 200 -480 Descending FAA TRACON SMA TRACON (SMA)
04:28PM 39.8761 -75.2178 250° West 117 135 200  Level FAA TRACON SMA TRACON (SMA)